Herentals, Belgium
Current Conditions -  °F | °C
As of 5:25 AM on Thursday 23 Oct 2014 (Local Time) from EBDT Reporting Station
Broken Clouds Broken Clouds  
Wind Chill: 46°   Ceiling: 11000
Heat Index: 48°   Visibility: 6mi
Dew Point: 45°   Wind: 6mph
Humidity: 87%   Direction: 220°SW
Pressure: 30.21"   Gusts: NA
Location:  51.18°N, 4.83°E
Report Text: EBDT 230325Z 22005KT 9000 SCT050 BKN110 09/07 Q1023 BLU
Loading
Personal Weather Stations






























Interactive Weather Map
Tropical Storm Tracking
New forecast layout! Learn more

10-Day Weather Forecast

Advertisements
Track Severe Weather on mobile